Terminal Aerodrome Forecast
Issued by NWS

Home | Current Version | Previous Version | Text Only | Print | Product List | Glossary On
Versions: 1 2 3 4 5 6 7 8 9 10 11 12 13 14 15 16
000
FTAK31 PAJN 220534
TAFAPG
TAF
PAPG 220534Z 2206/2306 00000KT P6SM -RA OVC060
     FM220900 00000KT 6SM -RA BR OVC025
     FM221200 VRB04KT 4SM -RA BR SCT010 OVC025
      TEMPO 2212/2216 2SM -RA BR SCT007 OVC010
     FM222200 08003KT 6SM BR OVC025
      AMD LTD TO CLD VIS AND WIND 2206/2215=

USA.gov is the U.S. government's official web portal to all federal, state and local government web resources and services.